sensor_id;sensor_type;location;lat;lon;timestamp;pressure;altitude;pressure_sealevel;temperature;humidity
64516;BME280;50891;37.380;-122.076;2022-08-19T00:01:38;100881.94;;;30.02;36.39
64516;BME280;50891;37.380;-122.076;2022-08-19T00:04:08;100887.94;;;30.04;36.51
64516;BME280;50891;37.380;-122.076;2022-08-19T00:06:36;100884.16;;;30.05;36.29
64516;BME280;50891;37.380;-122.076;2022-08-19T00:09:06;100891.31;;;29.84;36.50
64516;BME280;50891;37.380;-122.076;2022-08-19T00:11:33;100883.22;;;29.89;36.55
64516;BME280;50891;37.380;-122.076;2022-08-19T00:14:00;100885.56;;;29.80;36.53
64516;BME280;50891;37.380;-122.076;2022-08-19T00:16:26;100889.56;;;29.73;36.62
64516;BME280;50891;37.380;-122.076;2022-08-19T00:18:53;100893.22;;;29.61;36.80
64516;BME280;50891;37.380;-122.076;2022-08-19T00:21:21;100894.94;;;29.68;36.84
64516;BME280;50891;37.380;-122.076;2022-08-19T00:23:48;100902.56;;;29.71;36.50
64516;BME280;50891;37.380;-122.076;2022-08-19T00:26:14;100907.75;;;29.72;36.80
64516;BME280;50891;37.380;-122.076;2022-08-19T00:28:41;100908.78;;;29.71;36.69
64516;BME280;50891;37.380;-122.076;2022-08-19T00:31:08;100909.41;;;29.78;36.39
64516;BME280;50891;37.380;-122.076;2022-08-19T00:33:35;100906.97;;;29.77;36.40
64516;BME280;50891;37.380;-122.076;2022-08-19T00:36:07;100903.50;;;29.81;36.64
64516;BME280;50891;37.380;-122.076;2022-08-19T00:38:36;100899.69;;;29.82;36.63
64516;BME280;50891;37.380;-122.076;2022-08-19T00:41:06;100896.41;;;29.80;36.47
64516;BME280;50891;37.380;-122.076;2022-08-19T00:43:33;100897.22;;;29.81;36.53
64516;BME280;50891;37.380;-122.076;2022-08-19T00:45:59;100893.75;;;29.86;36.55
64516;BME280;50891;37.380;-122.076;2022-08-19T00:48:28;100896.31;;;29.70;36.43
64516;BME280;50891;37.380;-122.076;2022-08-19T00:50:54;100902.38;;;29.55;36.39
64516;BME280;50891;37.380;-122.076;2022-08-19T00:53:23;100901.91;;;29.63;36.49
64516;BME280;50891;37.380;-122.076;2022-08-19T00:55:52;100902.31;;;29.72;36.31
64516;BME280;50891;37.380;-122.076;2022-08-19T00:58:20;100902.72;;;29.86;36.12
64516;BME280;50891;37.380;-122.076;2022-08-19T01:00:48;100909.00;;;29.92;36.35
64516;BME280;50891;37.380;-122.076;2022-08-19T01:03:17;100912.22;;;29.89;36.18
64516;BME280;50891;37.380;-122.076;2022-08-19T01:05:45;100914.94;;;29.89;36.13
64516;BME280;50891;37.380;-122.076;2022-08-19T01:08:12;100907.56;;;29.84;36.43
64516;BME280;50891;37.380;-122.076;2022-08-19T01:11:03;100906.75;;;29.83;36.29
64516;BME280;50891;37.380;-122.076;2022-08-19T01:13:31;100900.72;;;29.76;36.42
64516;BME280;50891;37.380;-122.076;2022-08-19T01:16:05;100911.56;;;29.76;36.22
64516;BME280;50891;37.380;-122.076;2022-08-19T01:18:36;100897.94;;;29.71;36.37
64516;BME280;50891;37.380;-122.076;2022-08-19T01:21:09;100907.16;;;29.70;36.11
64516;BME280;50891;37.380;-122.076;2022-08-19T01:23:36;100896.50;;;29.63;36.42
64516;BME280;50891;37.380;-122.076;2022-08-19T01:26:20;100885.91;;;29.62;36.56
64516;BME280;50891;37.380;-122.076;2022-08-19T01:28:49;100888.38;;;29.63;36.35
64516;BME280;50891;37.380;-122.076;2022-08-19T01:31:22;100890.00;;;29.65;36.46
64516;BME280;50891;37.380;-122.076;2022-08-19T01:33:50;100888.81;;;29.55;36.73
64516;BME280;50891;37.380;-122.076;2022-08-19T01:36:28;100879.34;;;29.31;37.41
64516;BME280;50891;37.380;-122.076;2022-08-19T01:38:55;100895.13;;;29.12;37.86
64516;BME280;50891;37.380;-122.076;2022-08-19T01:41:22;100890.81;;;29.16;38.55
64516;BME280;50891;37.380;-122.076;2022-08-19T01:43:49;100894.66;;;29.20;40.20
64516;BME280;50891;37.380;-122.076;2022-08-19T01:46:17;100886.16;;;29.33;40.80
64516;BME280;50891;37.380;-122.076;2022-08-19T01:48:44;100895.50;;;29.48;41.02
64516;BME280;50891;37.380;-122.076;2022-08-19T01:51:12;100891.53;;;29.55;40.92
64516;BME280;50891;37.380;-122.076;2022-08-19T01:53:39;100886.41;;;29.59;40.04
64516;BME280;50891;37.380;-122.076;2022-08-19T01:56:06;100894.56;;;29.59;39.24
64516;BME280;50891;37.380;-122.076;2022-08-19T01:58:39;100897.22;;;29.54;38.38
64516;BME280;50891;37.380;-122.076;2022-08-19T02:01:07;100888.03;;;29.60;38.29
64516;BME280;50891;37.380;-122.076;2022-08-19T02:03:34;100887.63;;;29.68;37.90
64516;BME280;50891;37.380;-122.076;2022-08-19T02:06:01;100902.72;;;29.64;37.35
64516;BME280;50891;37.380;-122.076;2022-08-19T02:08:33;100900.59;;;29.66;37.44
64516;BME280;50891;37.380;-122.076;2022-08-19T02:11:00;100893.50;;;29.65;37.10
64516;BME280;50891;37.380;-122.076;2022-08-19T02:13:27;100897.84;;;29.61;37.00
64516;BME280;50891;37.380;-122.076;2022-08-19T02:15:53;100902.72;;;29.64;37.42
64516;BME280;50891;37.380;-122.076;2022-08-19T02:18:19;100904.09;;;29.67;37.24
64516;BME280;50891;37.380;-122.076;2022-08-19T02:20:46;100901.41;;;29.67;37.28
64516;BME280;50891;37.380;-122.076;2022-08-19T02:23:16;100904.09;;;29.67;37.79
64516;BME280;50891;37.380;-122.076;2022-08-19T02:25:44;100896.50;;;29.63;37.89
64516;BME280;50891;37.380;-122.076;2022-08-19T02:28:11;100902.44;;;29.60;37.70
64516;BME280;50891;37.380;-122.076;2022-08-19T02:30:39;100905.63;;;29.57;37.63
64516;BME280;50891;37.380;-122.076;2022-08-19T02:33:06;100899.34;;;29.52;37.46
64516;BME280;50891;37.380;-122.076;2022-08-19T02:35:32;100904.16;;;29.45;37.57
64516;BME280;50891;37.380;-122.076;2022-08-19T02:37:59;100904.53;;;29.31;37.42
64516;BME280;50891;37.380;-122.076;2022-08-19T02:40:51;100917.22;;;29.26;37.81
64516;BME280;50891;37.380;-122.076;2022-08-19T02:43:18;100911.19;;;29.18;37.72
64516;BME280;50891;37.380;-122.076;2022-08-19T02:45:46;100918.41;;;29.13;37.85
64516;BME280;50891;37.380;-122.076;2022-08-19T02:48:16;100931.38;;;29.11;37.79
64516;BME280;50891;37.380;-122.076;2022-08-19T02:50:43;100927.09;;;29.15;37.85
64516;BME280;50891;37.380;-122.076;2022-08-19T02:53:10;100930.38;;;29.17;38.05
64516;BME280;50891;37.380;-122.076;2022-08-19T02:55:42;100930.31;;;29.12;37.95
64516;BME280;50891;37.380;-122.076;2022-08-19T02:58:10;100941.22;;;29.17;38.05
64516;BME280;50891;37.380;-122.076;2022-08-19T03:00:40;100946.06;;;29.15;38.20
64516;BME280;50891;37.380;-122.076;2022-08-19T03:03:07;100940.88;;;29.13;38.36
64516;BME280;50891;37.380;-122.076;2022-08-19T03:05:34;100943.31;;;29.10;38.32
64516;BME280;50891;37.380;-122.076;2022-08-19T03:08:00;100943.88;;;29.12;38.44
64516;BME280;50891;37.380;-122.076;2022-08-19T03:10:27;100950.91;;;29.13;38.30
64516;BME280;50891;37.380;-122.076;2022-08-19T03:12:53;100955.53;;;29.12;38.38
64516;BME280;50891;37.380;-122.076;2022-08-19T03:15:19;100948.78;;;29.15;38.25
64516;BME280;50891;37.380;-122.076;2022-08-19T03:17:45;100951.25;;;29.16;37.99
64516;BME280;50891;37.380;-122.076;2022-08-19T03:20:12;100959.94;;;29.18;38.20
64516;BME280;50891;37.380;-122.076;2022-08-19T03:22:38;100959.66;;;29.20;38.03
64516;BME280;50891;37.380;-122.076;2022-08-19T03:25:05;100966.16;;;29.19;38.13
64516;BME280;50891;37.380;-122.076;2022-08-19T03:27:31;100959.63;;;29.15;38.36
64516;BME280;50891;37.380;-122.076;2022-08-19T03:29:57;100960.22;;;29.00;38.50
64516;BME280;50891;37.380;-122.076;2022-08-19T03:32:24;100962.00;;;28.94;38.58
64516;BME280;50891;37.380;-122.076;2022-08-19T03:34:51;100970.13;;;28.94;38.63
64516;BME280;50891;37.380;-122.076;2022-08-19T03:37:18;100957.69;;;28.93;38.67
64516;BME280;50891;37.380;-122.076;2022-08-19T03:39:44;100953.06;;;28.94;38.57
64516;BME280;50891;37.380;-122.076;2022-08-19T03:42:11;100952.25;;;28.93;38.52
64516;BME280;50891;37.380;-122.076;2022-08-19T03:44:38;100957.28;;;28.85;38.73
64516;BME280;50891;37.380;-122.076;2022-08-19T03:47:05;100965.06;;;28.81;38.92
64516;BME280;50891;37.380;-122.076;2022-08-19T03:49:32;100975.81;;;28.76;38.99
64516;BME280;50891;37.380;-122.076;2022-08-19T03:52:01;100974.78;;;28.77;38.98
64516;BME280;50891;37.380;-122.076;2022-08-19T03:54:28;100980.19;;;28.77;39.12
64516;BME280;50891;37.380;-122.076;2022-08-19T03:56:56;100977.22;;;28.78;39.22
64516;BME280;50891;37.380;-122.076;2022-08-19T03:59:28;100982.63;;;28.78;39.13
64516;BME280;50891;37.380;-122.076;2022-08-19T04:01:57;100972.28;;;28.75;39.43
64516;BME280;50891;37.380;-122.076;2022-08-19T04:04:24;100972.63;;;28.79;39.34
64516;BME280;50891;37.380;-122.076;2022-08-19T04:06:51;100980.25;;;28.82;39.27
64516;BME280;50891;37.380;-122.076;2022-08-19T04:09:18;100981.06;;;28.83;39.35
64516;BME280;50891;37.380;-122.076;2022-08-19T04:11:50;100981.56;;;28.79;39.30
64516;BME280;50891;37.380;-122.076;2022-08-19T04:14:25;100990.28;;;28.82;39.18
64516;BME280;50891;37.380;-122.076;2022-08-19T04:16:55;100988.59;;;28.81;39.26
64516;BME280;50891;37.380;-122.076;2022-08-19T04:19:21;100993.22;;;28.80;39.14
64516;BME280;50891;37.380;-122.076;2022-08-19T04:21:50;100993.72;;;28.77;39.31
64516;BME280;50891;37.380;-122.076;2022-08-19T04:24:18;100993.72;;;28.77;39.09
64516;BME280;50891;37.380;-122.076;2022-08-19T04:26:45;100997.47;;;28.76;39.22
64516;BME280;50891;37.380;-122.076;2022-08-19T04:29:18;100996.34;;;28.72;39.46
64516;BME280;50891;37.380;-122.076;2022-08-19T04:31:48;101002.75;;;28.66;39.36
64516;BME280;50891;37.380;-122.076;2022-08-19T04:34:16;101010.53;;;28.62;39.43
64516;BME280;50891;37.380;-122.076;2022-08-19T04:36:44;101010.53;;;28.62;39.36
64516;BME280;50891;37.380;-122.076;2022-08-19T04:39:17;101003.25;;;28.63;39.29
64516;BME280;50891;37.380;-122.076;2022-08-19T04:41:44;100999.69;;;28.62;39.41
64516;BME280;50891;37.380;-122.076;2022-08-19T04:44:34;100999.22;;;28.65;39.53
64516;BME280;50891;37.380;-122.076;2022-08-19T04:47:01;101002.75;;;28.66;39.39
64516;BME280;50891;37.380;-122.076;2022-08-19T04:49:31;101005.75;;;28.69;39.37
64516;BME280;50891;37.380;-122.076;2022-08-19T04:51:57;101002.81;;;28.71;39.43
64516;BME280;50891;37.380;-122.076;2022-08-19T04:54:24;101006.09;;;28.73;39.26
64516;BME280;50891;37.380;-122.076;2022-08-19T04:56:52;101000.19;;;28.76;39.44
64516;BME280;50891;37.380;-122.076;2022-08-19T04:59:19;101002.88;;;28.76;39.25
64516;BME280;50891;37.380;-122.076;2022-08-19T05:01:47;101005.59;;;28.76;39.25
64516;BME280;50891;37.380;-122.076;2022-08-19T05:04:20;101005.59;;;28.76;39.50
64516;BME280;50891;37.380;-122.076;2022-08-19T05:06:47;101003.16;;;28.74;39.18
64516;BME280;50891;37.380;-122.076;2022-08-19T05:09:15;100995.50;;;28.71;39.14
64516;BME280;50891;37.380;-122.076;2022-08-19T05:11:41;100998.56;;;28.75;39.21
64516;BME280;50891;37.380;-122.076;2022-08-19T05:14:09;100994.69;;;28.71;39.27
64516;BME280;50891;37.380;-122.076;2022-08-19T05:16:38;100987.16;;;28.73;39.35
64516;BME280;50891;37.380;-122.076;2022-08-19T05:19:04;100986.66;;;28.76;39.09
64516;BME280;50891;37.380;-122.076;2022-08-19T05:21:49;100989.13;;;28.77;38.93
64516;BME280;50891;37.380;-122.076;2022-08-19T05:24:34;100980.19;;;28.77;39.22
64516;BME280;50891;37.380;-122.076;2022-08-19T05:27:01;100973.91;;;28.76;39.24
64516;BME280;50891;37.380;-122.076;2022-08-19T05:29:29;100976.41;;;28.78;38.93
64516;BME280;50891;37.380;-122.076;2022-08-19T05:31:57;100971.72;;;28.73;39.05
64516;BME280;50891;37.380;-122.076;2022-08-19T05:34:25;100976.31;;;28.73;39.16
64516;BME280;50891;37.380;-122.076;2022-08-19T05:36:55;100982.81;;;28.72;39.29
64516;BME280;50891;37.380;-122.076;2022-08-19T05:39:27;100976.72;;;28.65;39.33
64516;BME280;50891;37.380;-122.076;2022-08-19T05:41:59;100969.69;;;28.64;39.30
64516;BME280;50891;37.380;-122.076;2022-08-19T05:44:28;100965.59;;;28.61;39.40
64516;BME280;50891;37.380;-122.076;2022-08-19T05:47:01;100961.50;;;28.58;39.32
64516;BME280;50891;37.380;-122.076;2022-08-19T05:49:29;100961.72;;;28.57;39.49
64516;BME280;50891;37.380;-122.076;2022-08-19T05:51:55;100962.53;;;28.57;39.52
64516;BME280;50891;37.380;-122.076;2022-08-19T05:54:23;100959.75;;;28.52;39.67
64516;BME280;50891;37.380;-122.076;2022-08-19T05:56:50;100963.56;;;28.51;39.53
64516;BME280;50891;37.380;-122.076;2022-08-19T05:59:18;100959.75;;;28.52;39.42
64516;BME280;50891;37.380;-122.076;2022-08-19T06:01:48;100964.59;;;28.50;39.45
64516;BME280;50891;37.380;-122.076;2022-08-19T06:04:19;100960.50;;;28.48;39.69
64516;BME280;50891;37.380;-122.076;2022-08-19T06:06:48;100965.91;;;28.48;39.54
64516;BME280;50891;37.380;-122.076;2022-08-19T06:09:15;100952.66;;;28.46;39.49
64516;BME280;50891;37.380;-122.076;2022-08-19T06:11:44;100955.34;;;28.46;39.68
64516;BME280;50891;37.380;-122.076;2022-08-19T06:14:14;100954.75;;;28.44;39.54
64516;BME280;50891;37.380;-122.076;2022-08-19T06:16:42;100955.56;;;28.45;39.63
64516;BME280;50891;37.380;-122.076;2022-08-19T06:19:14;100955.22;;;28.41;39.52
64516;BME280;50891;37.380;-122.076;2022-08-19T06:21:44;100955.47;;;28.40;39.40
64516;BME280;50891;37.380;-122.076;2022-08-19T06:24:13;100954.09;;;28.37;39.54
64516;BME280;50891;37.380;-122.076;2022-08-19T06:26:42;100947.25;;;28.34;39.51
64516;BME280;50891;37.380;-122.076;2022-08-19T06:29:10;100947.75;;;28.31;39.64
64516;BME280;50891;37.380;-122.076;2022-08-19T06:31:37;100948.50;;;28.27;39.77
64516;BME280;50891;37.380;-122.076;2022-08-19T06:34:06;100947.09;;;28.24;39.67
64516;BME280;50891;37.380;-122.076;2022-08-19T06:36:38;100947.34;;;28.23;39.62
64516;BME280;50891;37.380;-122.076;2022-08-19T06:39:11;100938.69;;;28.21;39.59
64516;BME280;50891;37.380;-122.076;2022-08-19T06:41:41;100943.75;;;28.17;39.73
64516;BME280;50891;37.380;-122.076;2022-08-19T06:44:08;100933.16;;;28.15;39.65
64516;BME280;50891;37.380;-122.076;2022-08-19T06:46:36;100933.81;;;28.06;39.85
64516;BME280;50891;37.380;-122.076;2022-08-19T06:49:02;100938.41;;;28.05;39.76
64516;BME280;50891;37.380;-122.076;2022-08-19T06:51:29;100932.41;;;28.03;39.82
64516;BME280;50891;37.380;-122.076;2022-08-19T06:53:57;100930.22;;;28.00;40.05
64516;BME280;50891;37.380;-122.076;2022-08-19T06:56:27;100934.22;;;27.98;40.06
64516;BME280;50891;37.380;-122.076;2022-08-19T06:59:08;100935.53;;;27.95;40.04
64516;BME280;50891;37.380;-122.076;2022-08-19T07:01:50;100933.88;;;27.94;40.00
64516;BME280;50891;37.380;-122.076;2022-08-19T07:04:19;100933.88;;;27.94;40.29
64516;BME280;50891;37.380;-122.076;2022-08-19T07:06:46;100930.59;;;27.92;40.32
64516;BME280;50891;37.380;-122.076;2022-08-19T07:09:14;100926.50;;;27.89;40.37
64516;BME280;50891;37.380;-122.076;2022-08-19T07:11:50;100926.19;;;27.86;40.58
64516;BME280;50891;37.380;-122.076;2022-08-19T07:14:20;100921.81;;;27.85;40.90
64516;BME280;50891;37.380;-122.076;2022-08-19T07:16:51;100918.31;;;27.84;40.78
64516;BME280;50891;37.380;-122.076;2022-08-19T07:19:18;100922.63;;;27.85;41.65
64516;BME280;50891;37.380;-122.076;2022-08-19T07:21:50;100918.38;;;27.89;42.03
64516;BME280;50891;37.380;-122.076;2022-08-19T07:24:19;100913.31;;;27.93;42.65
64516;BME280;50891;37.380;-122.076;2022-08-19T07:26:46;100925.19;;;27.92;42.86
64516;BME280;50891;37.380;-122.076;2022-08-19T07:29:13;100917.06;;;27.92;42.76
64516;BME280;50891;37.380;-122.076;2022-08-19T07:31:39;100912.25;;;27.94;42.49
64516;BME280;50891;37.380;-122.076;2022-08-19T07:34:07;100908.97;;;27.92;43.08
64516;BME280;50891;37.380;-122.076;2022-08-19T07:36:37;100904.38;;;27.92;42.59
64516;BME280;50891;37.380;-122.076;2022-08-19T07:39:09;100904.06;;;27.89;42.55
64516;BME280;50891;37.380;-122.076;2022-08-19T07:41:36;100900.53;;;27.88;42.44
64516;BME280;50891;37.380;-122.076;2022-08-19T07:44:04;100913.22;;;27.88;43.19
64516;BME280;50891;37.380;-122.076;2022-08-19T07:46:38;100908.06;;;27.86;43.71
64516;BME280;50891;37.380;-122.076;2022-08-19T07:49:06;100909.13;;;27.85;44.36
64516;BME280;50891;37.380;-122.076;2022-08-19T07:51:34;100912.06;;;27.84;44.30
64516;BME280;50891;37.380;-122.076;2022-08-19T07:54:00;100909.81;;;27.81;44.44
64516;BME280;50891;37.380;-122.076;2022-08-19T07:56:27;100907.38;;;27.79;44.36
64516;BME280;50891;37.380;-122.076;2022-08-19T07:58:53;100904.91;;;27.78;44.49
64516;BME280;50891;37.380;-122.076;2022-08-19T08:01:22;100900.56;;;27.77;44.31
64516;BME280;50891;37.380;-122.076;2022-08-19T08:03:52;100903.16;;;27.71;44.17
64516;BME280;50891;37.380;-122.076;2022-08-19T08:06:37;100907.44;;;27.67;43.91
64516;BME280;50891;37.380;-122.076;2022-08-19T08:09:38;100909.53;;;27.65;43.97
64516;BME280;50891;37.380;-122.076;2022-08-19T08:12:20;100908.25;;;27.68;43.98
64516;BME280;50891;37.380;-122.076;2022-08-19T08:14:52;100914.13;;;27.65;43.85
64516;BME280;50891;37.380;-122.076;2022-08-19T08:17:23;100911.66;;;27.63;43.75
64516;BME280;50891;37.380;-122.076;2022-08-19T08:19:50;100911.91;;;27.62;43.86
64516;BME280;50891;37.380;-122.076;2022-08-19T08:22:20;100904.06;;;27.60;43.55
64516;BME280;50891;37.380;-122.076;2022-08-19T08:25:08;100899.69;;;27.59;43.34
64516;BME280;50891;37.380;-122.076;2022-08-19T08:27:40;100894.28;;;27.59;43.22
64516;BME280;50891;37.380;-122.076;2022-08-19T08:30:11;100891.84;;;27.58;43.12
64516;BME280;50891;37.380;-122.076;2022-08-19T08:32:38;100892.91;;;27.57;43.24
64516;BME280;50891;37.380;-122.076;2022-08-19T08:35:07;100888.56;;;27.56;43.12
64516;BME280;50891;37.380;-122.076;2022-08-19T08:37:34;100886.09;;;27.54;42.96
64516;BME280;50891;37.380;-122.076;2022-08-19T08:40:07;100883.63;;;27.52;42.92
64516;BME280;50891;37.380;-122.076;2022-08-19T08:42:43;100887.41;;;27.51;42.87
64516;BME280;50891;37.380;-122.076;2022-08-19T08:45:13;100886.00;;;27.49;42.75
64516;BME280;50891;37.380;-122.076;2022-08-19T08:47:44;100888.13;;;27.47;42.55
64516;BME280;50891;37.380;-122.076;2022-08-19T08:50:20;100888.94;;;27.47;42.52
64516;BME280;50891;37.380;-122.076;2022-08-19T08:52:52;100882.63;;;27.42;42.55
64516;BME280;50891;37.380;-122.076;2022-08-19T08:55:26;100882.28;;;27.38;42.65
64516;BME280;50891;37.380;-122.076;2022-08-19T09:00:25;100878.09;;;27.30;42.33
64516;BME280;50891;37.380;-122.076;2022-08-19T09:02:54;100876.44;;;27.29;42.35
64516;BME280;50891;37.380;-122.076;2022-08-19T09:05:21;100880.22;;;27.28;42.21
64516;BME280;50891;37.380;-122.076;2022-08-19T09:08:06;100868.00;;;27.26;41.98
64516;BME280;50891;37.380;-122.076;2022-08-19T09:10:39;100876.09;;;27.26;42.06
64516;BME280;50891;37.380;-122.076;2022-08-19T09:16:06;100869.75;;;27.20;42.16
64516;BME280;50891;37.380;-122.076;2022-08-19T09:18:53;100865.41;;;27.19;42.02
64516;BME280;50891;37.380;-122.076;2022-08-19T09:21:21;100860.94;;;27.13;42.03
64516;BME280;50891;37.380;-122.076;2022-08-19T09:23:48;100854.66;;;27.07;42.07
64516;BME280;50891;37.380;-122.076;2022-08-19T09:26:18;100853.84;;;27.07;42.21
64516;BME280;50891;37.380;-122.076;2022-08-19T09:28:50;100855.47;;;27.08;41.89
64516;BME280;50891;37.380;-122.076;2022-08-19T09:31:20;100853.56;;;27.08;42.00
64516;BME280;50891;37.380;-122.076;2022-08-19T09:33:47;100850.88;;;27.08;42.22
64516;BME280;50891;37.380;-122.076;2022-08-19T09:36:16;100857.13;;;27.09;41.77
64516;BME280;50891;37.380;-122.076;2022-08-19T09:38:44;100848.88;;;27.04;42.08
64516;BME280;50891;37.380;-122.076;2022-08-19T09:41:13;100852.66;;;27.03;41.93
64516;BME280;50891;37.380;-122.076;2022-08-19T09:43:41;100845.88;;;27.00;41.90
64516;BME280;50891;37.380;-122.076;2022-08-19T09:46:08;100851.50;;;26.99;41.89
64516;BME280;50891;37.380;-122.076;2022-08-19T09:48:39;100847.75;;;27.00;41.89
64516;BME280;50891;37.380;-122.076;2022-08-19T09:51:09;100849.06;;;26.97;41.89
64516;BME280;50891;37.380;-122.076;2022-08-19T09:53:37;100851.16;;;26.95;42.07
64516;BME280;50891;37.380;-122.076;2022-08-19T09:56:04;100848.47;;;26.95;41.76
64516;BME280;50891;37.380;-122.076;2022-08-19T09:58:32;100850.31;;;26.95;42.09
64516;BME280;50891;37.380;-122.076;2022-08-19T10:01:00;100850.31;;;26.95;42.15
64516;BME280;50891;37.380;-122.076;2022-08-19T10:03:28;100839.78;;;26.93;42.11
64516;BME280;50891;37.380;-122.076;2022-08-19T10:05:56;100840.00;;;26.91;42.04
64516;BME280;50891;37.380;-122.076;2022-08-19T10:08:27;100834.88;;;26.90;42.30
64516;BME280;50891;37.380;-122.076;2022-08-19T10:10:54;100837.78;;;26.88;42.30
64516;BME280;50891;37.380;-122.076;2022-08-19T10:13:23;100836.41;;;26.86;42.37
64516;BME280;50891;37.380;-122.076;2022-08-19T10:15:52;100833.69;;;26.86;42.20
64516;BME280;50891;37.380;-122.076;2022-08-19T10:18:20;100838.50;;;26.84;42.45
64516;BME280;50891;37.380;-122.076;2022-08-19T10:20:48;100840.63;;;26.82;42.34
64516;BME280;50891;37.380;-122.076;2022-08-19T10:23:16;100830.06;;;26.80;42.60
64516;BME280;50891;37.380;-122.076;2022-08-19T10:25:43;100833.81;;;26.79;42.35
64516;BME280;50891;37.380;-122.076;2022-08-19T10:28:09;100834.06;;;26.78;42.55
64516;BME280;50891;37.380;-122.076;2022-08-19T10:30:39;100836.75;;;26.78;42.60
64516;BME280;50891;37.380;-122.076;2022-08-19T10:33:06;100835.34;;;26.75;42.68
64516;BME280;50891;37.380;-122.076;2022-08-19T10:35:32;100831.47;;;26.71;42.68
64516;BME280;50891;37.380;-122.076;2022-08-19T10:37:59;100832.56;;;26.70;42.61
64516;BME280;50891;37.380;-122.076;2022-08-19T10:40:28;100835.25;;;26.70;42.47
64516;BME280;50891;37.380;-122.076;2022-08-19T10:42:55;100841.69;;;26.69;42.75
64516;BME280;50891;37.380;-122.076;2022-08-19T10:45:22;100842.16;;;26.66;42.64
64516;BME280;50891;37.380;-122.076;2022-08-19T10:47:50;100835.97;;;26.65;42.69
64516;BME280;50891;37.380;-122.076;2022-08-19T10:50:16;100840.78;;;26.63;42.58
64516;BME280;50891;37.380;-122.076;2022-08-19T10:53:05;100837.25;;;26.63;42.81
64516;BME280;50891;37.380;-122.076;2022-08-19T10:55:34;100826.94;;;26.60;42.82
64516;BME280;50891;37.380;-122.076;2022-08-19T10:58:21;100825.78;;;26.56;42.61
64516;BME280;50891;37.380;-122.076;2022-08-19T11:00:57;100826.81;;;26.55;42.60
64516;BME280;50891;37.380;-122.076;2022-08-19T11:03:25;100829.16;;;26.51;42.77
64516;BME280;50891;37.380;-122.076;2022-08-19T11:06:04;100827.03;;;26.53;42.68
64516;BME280;50891;37.380;-122.076;2022-08-19T11:08:33;100818.59;;;26.49;42.71
64516;BME280;50891;37.380;-122.076;2022-08-19T11:11:01;100830.56;;;26.54;42.82
64516;BME280;50891;37.380;-122.076;2022-08-19T11:13:30;100823.75;;;26.51;42.68
64516;BME280;50891;37.380;-122.076;2022-08-19T11:16:10;100822.09;;;26.50;42.83
64516;BME280;50891;37.380;-122.076;2022-08-19T11:18:45;100826.09;;;26.47;42.78
64516;BME280;50891;37.380;-122.076;2022-08-19T11:21:15;100828.78;;;26.47;42.90
64516;BME280;50891;37.380;-122.076;2022-08-19T11:23:46;100827.16;;;26.46;42.92
64516;BME280;50891;37.380;-122.076;2022-08-19T11:26:14;100818.47;;;26.44;43.12
64516;BME280;50891;37.380;-122.076;2022-08-19T11:28:41;100816.00;;;26.43;43.14
64516;BME280;50891;37.380;-122.076;2022-08-19T11:31:17;100818.38;;;26.39;43.11
64516;BME280;50891;37.380;-122.076;2022-08-19T11:33:45;100826.47;;;26.39;43.11
64516;BME280;50891;37.380;-122.076;2022-08-19T11:36:12;100813.19;;;26.38;43.28
64516;BME280;50891;37.380;-122.076;2022-08-19T11:38:38;100818.25;;;26.34;43.28
64516;BME280;50891;37.380;-122.076;2022-08-19T11:41:06;100813.31;;;26.31;43.37
64516;BME280;50891;37.380;-122.076;2022-08-19T11:43:34;100817.66;;;26.32;43.49
64516;BME280;50891;37.380;-122.076;2022-08-19T11:46:05;100806.88;;;26.32;43.33
64516;BME280;50891;37.380;-122.076;2022-08-19T11:48:32;100810.41;;;26.33;43.20
64516;BME280;50891;37.380;-122.076;2022-08-19T11:50:59;100808.50;;;26.33;43.26
64516;BME280;50891;37.380;-122.076;2022-08-19T11:53:32;100805.81;;;26.33;43.18
64516;BME280;50891;37.380;-122.076;2022-08-19T11:55:58;100805.47;;;26.30;43.24
64516;BME280;50891;37.380;-122.076;2022-08-19T11:58:24;100806.28;;;26.30;43.09
64516;BME280;50891;37.380;-122.076;2022-08-19T12:00:51;100810.03;;;26.29;43.24
64516;BME280;50891;37.380;-122.076;2022-08-19T12:03:18;100806.75;;;26.27;43.08
64516;BME280;50891;37.380;-122.076;2022-08-19T12:05:45;100806.41;;;26.23;43.11
64516;BME280;50891;37.380;-122.076;2022-08-19T12:08:12;100809.31;;;26.22;43.12
64516;BME280;50891;37.380;-122.076;2022-08-19T12:10:41;100812.88;;;26.22;43.15
64516;BME280;50891;37.380;-122.076;2022-08-19T12:13:09;100814.13;;;26.20;43.19
64516;BME280;50891;37.380;-122.076;2022-08-19T12:15:39;100812.28;;;26.20;43.19
64516;BME280;50891;37.380;-122.076;2022-08-19T12:18:09;100814.13;;;26.20;43.14
64516;BME280;50891;37.380;-122.076;2022-08-19T12:20:37;100807.34;;;26.17;43.01
64516;BME280;50891;37.380;-122.076;2022-08-19T12:23:05;100805.94;;;26.15;43.08
64516;BME280;50891;37.380;-122.076;2022-08-19T12:25:32;100815.69;;;26.16;43.17
64516;BME280;50891;37.380;-122.076;2022-08-19T12:27:58;100807.00;;;26.14;43.17
64516;BME280;50891;37.380;-122.076;2022-08-19T12:30:25;100818.81;;;26.13;43.23
64516;BME280;50891;37.380;-122.076;2022-08-19T12:32:51;100811.22;;;26.10;43.22
64516;BME280;50891;37.380;-122.076;2022-08-19T12:35:18;100816.59;;;26.10;43.37
64516;BME280;50891;37.380;-122.076;2022-08-19T12:37:47;100818.22;;;26.11;43.30